Time;durP1;ratioP1;P1;durP2;ratioP2;P2;SDS_P1;SDS_P2;PMS_P1;PMS_P2;Temp;Humidity;BMP_temperature;BMP_pressure;BME280_temperature;BME280_humidity;BME280_pressure;Samples;Min_cycle;Max_cycle;Signal;HPM_P1;HPM_P2
2021/09/09 00:01:30;;;;;;;12.93;10.07;;;;;17.20;100525.00;;;;12889963;22;20243;-77
2021/09/09 00:06:31;;;;;;;11.85;10.27;;;;;17.20;100525.00;;;;12865640;22;20982;-77
2021/09/09 00:11:34;;;;;;;14.05;9.98;;;;;17.30;100508.00;;;;12890730;22;20173;-77
2021/09/09 00:16:36;;;;;;;12.10;9.32;;;;;17.20;100501.00;;;;12887934;22;20224;-77
2021/09/09 00:21:37;;;;;;;14.45;10.65;;;;;17.20;100492.00;;;;12863745;22;20558;-77
2021/09/09 00:26:44;;;;;;;11.67;10.47;;;;;17.10;100480.00;;;;12865319;22;20191;-77
2021/09/09 00:31:45;;;;;;;13.53;10.23;;;;;17.10;100467.00;;;;12864487;22;20169;-77
2021/09/09 00:36:46;;;;;;;15.97;10.43;;;;;17.10;100468.00;;;;12936668;22;20193;-77
2021/09/09 00:41:47;;;;;;;12.13;10.27;;;;;17.10;100459.00;;;;12864983;22;20628;-77
2021/09/09 00:47:09;;;;;;;15.53;10.53;;;;;17.00;100467.00;;;;12866058;22;20200;-77
2021/09/09 00:52:12;;;;;;;17.17;9.98;;;;;17.00;100458.00;;;;12864135;22;20200;-77
2021/09/09 00:57:16;;;;;;;14.60;10.23;;;;;17.00;100455.00;;;;12914785;22;20174;-78
2021/09/09 01:02:18;;;;;;;11.23;9.60;;;;;16.90;100455.00;;;;12864742;22;20170;-78
2021/09/09 01:07:19;;;;;;;13.13;10.43;;;;;17.00;100459.00;;;;12914848;22;20212;-78
2021/09/09 01:12:21;;;;;;;12.27;9.83;;;;;16.90;100470.00;;;;12865434;22;20192;-77
2021/09/09 01:17:22;;;;;;;12.33;9.93;;;;;16.80;100476.00;;;;12863587;22;20193;-78
2021/09/09 01:22:23;;;;;;;14.10;9.87;;;;;16.70;100489.00;;;;12866187;22;20793;-77
2021/09/09 01:27:25;;;;;;;13.73;10.33;;;;;16.60;100482.00;;;;12890927;22;20200;-78
2021/09/09 01:32:26;;;;;;;14.60;10.40;;;;;16.50;100477.00;;;;12890773;22;20232;-77
2021/09/09 01:37:27;;;;;;;13.13;10.80;;;;;16.40;100478.00;;;;12891132;22;20181;-77
2021/09/09 01:42:28;;;;;;;12.20;10.30;;;;;16.30;100483.00;;;;12916296;22;20173;-78
2021/09/09 01:47:29;;;;;;;13.97;9.87;;;;;16.20;100490.00;;;;12891551;22;20197;-77
2021/09/09 01:52:31;;;;;;;11.97;10.33;;;;;16.20;100486.00;;;;12866202;22;20242;-77
2021/09/09 01:57:32;;;;;;;11.90;9.80;;;;;16.10;100487.00;;;;12864801;22;20236;-77
2021/09/09 02:02:33;;;;;;;11.40;10.03;;;;;16.10;100489.00;;;;12889358;22;20264;-77
2021/09/09 02:07:34;;;;;;;11.53;10.33;;;;;16.10;100483.00;;;;12865735;22;20629;-77
2021/09/09 02:12:35;;;;;;;14.47;10.60;;;;;16.00;100471.00;;;;12866812;23;20170;-77
2021/09/09 02:17:37;;;;;;;14.30;11.23;;;;;16.00;100461.00;;;;12888802;22;20193;-78
2021/09/09 02:22:38;;;;;;;11.83;10.30;;;;;16.00;100465.00;;;;12864341;22;20219;-77
2021/09/09 02:27:39;;;;;;;14.13;11.30;;;;;16.00;100464.00;;;;12891974;22;20676;-77
2021/09/09 02:32:41;;;;;;;13.03;11.07;;;;;16.00;100466.00;;;;12918017;22;20169;-77
2021/09/09 02:37:42;;;;;;;13.80;10.17;;;;;16.00;100471.00;;;;12893270;22;20207;-77
2021/09/09 02:42:43;;;;;;;12.13;10.77;;;;;16.00;100470.00;;;;12868415;22;20274;-77
2021/09/09 02:47:45;;;;;;;10.80;9.70;;;;;16.00;100472.00;;;;12917606;22;20197;-77
2021/09/09 02:52:46;;;;;;;10.83;8.97;;;;;16.10;100476.00;;;;12893772;22;20180;-77
2021/09/09 02:57:47;;;;;;;11.50;8.77;;;;;16.30;100489.00;;;;12867976;22;20189;-78
2021/09/09 03:02:48;;;;;;;14.37;8.63;;;;;16.40;100493.00;;;;12868514;22;20196;-77
2021/09/09 03:07:50;;;;;;;15.07;8.77;;;;;16.40;100493.00;;;;12842045;22;20233;-77
2021/09/09 03:12:51;;;;;;;11.30;9.13;;;;;16.30;100486.00;;;;12893003;22;20173;-78
2021/09/09 03:17:52;;;;;;;10.10;8.27;;;;;16.30;100481.00;;;;12893973;22;20212;-78
2021/09/09 03:22:53;;;;;;;13.20;8.87;;;;;16.20;100474.00;;;;12869368;22;20174;-78
2021/09/09 03:27:55;;;;;;;12.63;8.57;;;;;16.30;100464.00;;;;12893094;22;20194;-78
2021/09/09 03:32:57;;;;;;;15.47;9.23;;;;;16.30;100455.00;;;;12868957;22;20226;-78
2021/09/09 03:37:58;;;;;;;12.30;8.93;;;;;16.40;100448.00;;;;12868700;22;20257;-78
2021/09/09 03:43:00;;;;;;;10.93;8.70;;;;;16.40;100444.00;;;;12892477;22;20173;-78
2021/09/09 03:48:02;;;;;;;10.73;8.67;;;;;16.30;100442.00;;;;12891310;22;20267;-78
2021/09/09 03:53:03;;;;;;;11.17;8.83;;;;;16.20;100435.00;;;;12844641;22;20196;-78
2021/09/09 03:58:04;;;;;;;12.40;8.70;;;;;16.30;100454.00;;;;12892534;22;20613;-78
2021/09/09 04:03:06;;;;;;;13.30;9.80;;;;;16.60;100452.00;;;;12892950;23;20170;-78
2021/09/09 04:08:07;;;;;;;12.87;9.03;;;;;16.80;100434.00;;;;12892066;22;20193;-78
2021/09/09 04:13:08;;;;;;;13.20;10.43;;;;;17.00;100427.00;;;;12938008;22;20165;-78
2021/09/09 04:18:10;;;;;;;12.17;8.57;;;;;17.00;100438.00;;;;12916437;22;20189;-78
2021/09/09 04:23:11;;;;;;;11.33;9.47;;;;;16.90;100443.00;;;;12866632;22;20228;-78
2021/09/09 04:28:13;;;;;;;13.77;9.20;;;;;16.80;100462.00;;;;12891584;22;20201;-78
2021/09/09 04:33:15;;;;;;;13.60;10.40;;;;;17.00;100445.00;;;;12868118;22;21051;-78
2021/09/09 04:38:23;;;;;;;14.40;10.10;;;;;17.00;100430.00;;;;12846193;22;20856;-78
2021/09/09 04:43:24;;;;;;;11.63;8.90;;;;;17.10;100438.00;;;;12843107;22;20187;-78
2021/09/09 04:48:26;;;;;;;16.52;10.45;;;;;17.20;100432.00;;;;12891835;22;20200;-78
2021/09/09 04:53:27;;;;;;;14.73;11.33;;;;;17.20;100436.00;;;;12937718;22;20165;-78
2021/09/09 04:58:28;;;;;;;15.60;12.25;;;;;17.30;100424.00;;;;12917207;22;20181;-78
2021/09/09 05:03:29;;;;;;;12.80;10.23;;;;;17.50;100433.00;;;;12844964;22;20610;-78
2021/09/09 05:08:31;;;;;;;17.50;10.52;;;;;17.60;100426.00;;;;12870128;22;20718;-78
2021/09/09 05:13:32;;;;;;;12.73;10.63;;;;;17.90;100428.00;;;;12893393;22;20247;-78
2021/09/09 05:18:33;;;;;;;15.88;11.18;;;;;18.10;100441.00;;;;12869353;22;20189;-78
2021/09/09 05:23:35;;;;;;;13.55;10.57;;;;;18.40;100444.00;;;;12871586;22;20173;-78
2021/09/09 05:28:36;;;;;;;18.25;10.75;;;;;18.60;100449.00;;;;12894113;22;20913;-78
2021/09/09 05:33:37;;;;;;;14.85;10.98;;;;;18.90;100438.00;;;;12843998;22;20193;-78
2021/09/09 05:38:38;;;;;;;16.10;11.50;;;;;19.20;100439.00;;;;12894111;22;20621;-78
2021/09/09 05:43:40;;;;;;;17.92;10.82;;;;;19.50;100434.00;;;;12866860;22;20207;-78
2021/09/09 05:48:41;;;;;;;14.88;11.00;;;;;19.90;100436.00;;;;12910801;22;20191;-78
2021/09/09 05:53:42;;;;;;;13.40;11.10;;;;;20.40;100428.00;;;;12913299;22;20174;-78
2021/09/09 05:58:43;;;;;;;14.75;11.27;;;;;20.80;100430.00;;;;12846054;22;20553;-78
2021/09/09 06:03:45;;;;;;;15.48;11.13;;;;;21.20;100450.00;;;;12873592;22;20185;-80
2021/09/09 06:08:47;;;;;;;17.60;11.38;;;;;21.40;100454.00;;;;12846117;22;20251;-79
2021/09/09 06:13:48;;;;;;;13.25;10.80;;;;;21.80;100453.00;;;;12895658;22;20169;-78
2021/09/09 06:18:49;;;;;;;16.67;11.07;;;;;22.10;100460.00;;;;12868694;22;20189;-78
2021/09/09 06:23:51;;;;;;;14.32;11.20;;;;;22.00;100465.00;;;;12892979;22;20170;-78
2021/09/09 06:28:52;;;;;;;12.30;10.93;;;;;22.00;100476.00;;;;12893282;22;20272;-79
2021/09/09 06:33:53;;;;;;;15.30;11.23;;;;;22.10;100469.00;;;;12870041;22;20184;-78
2021/09/09 06:38:54;;;;;;;14.25;10.73;;;;;22.30;100472.00;;;;12942590;22;20285;-79
2021/09/09 06:43:56;;;;;;;13.38;10.23;;;;;22.40;100486.00;;;;12917609;22;20185;-78
2021/09/09 06:48:57;;;;;;;16.45;10.93;;;;;22.30;100477.00;;;;12942743;22;20193;-78
2021/09/09 06:53:59;;;;;;;16.90;9.90;;;;;22.20;100484.00;;;;12916371;22;20173;-78
2021/09/09 06:59:01;;;;;;;14.48;9.70;;;;;22.30;100481.00;;;;12891535;22;20208;-78
2021/09/09 07:04:02;;;;;;;13.38;9.68;;;;;22.90;100481.00;;;;12870773;22;20256;-79
2021/09/09 07:09:03;;;;;;;15.27;10.02;;;;;23.50;100476.00;;;;12866695;22;20762;-78
2021/09/09 07:14:05;;;;;;;13.02;10.15;;;;;24.00;100482.00;;;;12868961;22;20252;-78
2021/09/09 07:19:06;;;;;;;12.50;9.80;;;;;23.70;100497.00;;;;12915899;22;20204;-78
2021/09/09 07:24:08;;;;;;;13.60;10.30;;;;;23.50;100507.00;;;;12839726;22;20196;-78
2021/09/09 07:29:09;;;;;;;11.82;10.63;;;;;23.20;100501.00;;;;12938908;22;20299;-79
2021/09/09 07:34:11;;;;;;;14.65;9.50;;;;;22.70;100501.00;;;;12867663;22;20312;-79
2021/09/09 07:39:12;;;;;;;14.15;10.68;;;;;22.70;100502.00;;;;12895198;22;20888;-79
2021/09/09 07:44:13;;;;;;;10.45;9.07;;;;;23.40;100499.00;;;;12895427;22;20176;-79
2021/09/09 07:49:15;;;;;;;11.88;9.45;;;;;24.30;100509.00;;;;12894102;22;20522;-78
2021/09/09 07:54:17;;;;;;;12.13;9.88;;;;;24.80;100505.00;;;;12844167;22;20204;-79
2021/09/09 07:59:18;;;;;;;13.57;10.57;;;;;25.10;100506.00;;;;12847287;22;20642;-79
2021/09/09 08:04:19;;;;;;;15.68;10.15;;;;;25.30;100517.00;;;;12891838;22;20166;-79
2021/09/09 08:09:20;;;;;;;11.23;8.52;;;;;24.90;100517.00;;;;12870685;22;20276;-79
2021/09/09 08:14:21;;;;;;;10.55;9.45;;;;;25.40;100515.00;;;;12896248;22;20262;-79
2021/09/09 08:19:23;;;;;;;15.50;9.02;;;;;25.60;100530.00;;;;12895306;22;20536;-79
2021/09/09 08:24:24;;;;;;;15.35;8.82;;;;;26.10;100532.00;;;;12871863;22;20260;-79
2021/09/09 08:29:25;;;;;;;9.10;7.70;;;;;26.50;100527.00;;;;12894148;22;20201;-79
2021/09/09 08:34:27;;;;;;;9.82;8.00;;;;;26.80;100525.00;;;;12944087;22;20165;-79
2021/09/09 08:39:29;;;;;;;9.27;7.25;;;;;27.40;100528.00;;;;12895413;22;20177;-80
2021/09/09 08:44:30;;;;;;;8.27;7.38;;;;;27.90;100526.00;;;;12897574;22;20177;-80
2021/09/09 08:49:31;;;;;;;8.48;6.00;;;;;28.10;100540.00;;;;12898243;22;20201;-80
2021/09/09 08:54:33;;;;;;;14.23;7.75;;;;;27.60;100535.00;;;;12899938;22;20182;-79
2021/09/09 08:59:35;;;;;;;11.88;6.28;;;;;27.40;100551.00;;;;12904787;22;20196;-80
2021/09/09 09:04:38;;;;;;;15.10;6.53;;;;;28.10;100544.00;;;;12901917;22;20203;-80
2021/09/09 09:09:39;;;;;;;6.68;5.63;;;;;28.80;100550.00;;;;12851664;22;20344;-80
2021/09/09 09:14:40;;;;;;;7.97;6.35;;;;;29.10;100548.00;;;;12875386;22;20676;-80
2021/09/09 09:19:42;;;;;;;9.15;6.38;;;;;29.60;100542.00;;;;12875237;22;20189;-80
2021/09/09 09:24:51;;;;;;;7.65;5.57;;;;;30.00;100541.00;;;;12920629;22;20183;-80
2021/09/09 09:30:09;;;;;;;9.02;6.88;;;;;30.40;100543.00;;;;12898295;22;20287;-80
2021/09/09 09:35:13;;;;;;;6.88;6.20;;;;;30.10;100544.00;;;;12900849;23;20196;-80
2021/09/09 09:40:25;;;;;;;7.65;5.93;;;;;29.60;100569.00;;;;12901957;22;20177;-80
2021/09/09 09:45:26;;;;;;;9.15;6.75;;;;;28.80;100573.00;;;;12904566;22;20196;-80
2021/09/09 09:50:39;;;;;;;12.40;7.05;;;;;28.20;100564.00;;;;12856588;22;20252;-80
2021/09/09 09:55:41;;;;;;;8.63;7.50;;;;;28.80;100550.00;;;;12904306;22;20173;-80
2021/09/09 10:00:43;;;;;;;8.70;7.28;;;;;28.60;100556.00;;;;12905357;22;20209;-80
2021/09/09 10:05:45;;;;;;;9.55;8.10;;;;;28.20;100563.00;;;;12905598;22;20178;-80
2021/09/09 10:10:47;;;;;;;14.23;7.95;;;;;28.30;100564.00;;;;12903847;22;20193;-81
2021/09/09 10:15:50;;;;;;;11.45;7.78;;;;;29.10;100562.00;;;;12878895;22;20185;-80
2021/09/09 10:20:51;;;;;;;10.52;8.57;;;;;29.90;100554.00;;;;12923847;22;20170;-80
2021/09/09 10:25:55;;;;;;;13.45;8.18;;;;;30.90;100556.00;;;;12879060;22;20181;-80
2021/09/09 10:31:15;;;;;;;8.15;7.18;;;;;31.70;100565.00;;;;12902299;22;20633;-80
2021/09/09 10:36:47;;;;;;;8.20;7.25;;;;;32.20;100568.00;;;;12900511;22;20173;-80
2021/09/09 10:41:48;;;;;;;8.93;8.02;;;;;32.00;100560.00;;;;12902819;22;20189;-80
2021/09/09 10:46:49;;;;;;;10.35;7.60;;;;;31.30;100560.00;;;;12901527;22;20204;-80
2021/09/09 10:52:07;;;;;;;9.23;7.22;;;;;30.70;100556.00;;;;12877980;22;20529;-81
2021/09/09 10:57:14;;;;;;;8.77;6.85;;;;;31.10;100552.00;;;;12877851;22;20204;-80
2021/09/09 11:02:16;;;;;;;9.50;6.18;;;;;31.70;100547.00;;;;12901913;22;20170;-80
2021/09/09 11:07:23;;;;;;;9.27;6.55;;;;;32.10;100556.00;;;;12875351;22;20201;-80
2021/09/09 11:12:25;;;;;;;9.68;6.70;;;;;31.60;100548.00;;;;12899520;22;20208;-80
2021/09/09 11:17:26;;;;;;;9.35;7.35;;;;;31.10;100555.00;;;;12875746;22;20201;-80
2021/09/09 11:22:27;;;;;;;13.30;7.55;;;;;31.10;100554.00;;;;12876608;22;20174;-80
2021/09/09 11:27:31;;;;;;;7.13;6.30;;;;;30.60;100560.00;;;;12877899;22;20197;-80
2021/09/09 11:32:32;;;;;;;8.02;7.32;;;;;29.80;100558.00;;;;12878538;22;20201;-80
2021/09/09 11:37:46;;;;;;;9.07;6.93;;;;;29.40;100567.00;;;;12878060;22;20257;-80
2021/09/09 11:42:47;;;;;;;9.60;6.95;;;;;29.30;100565.00;;;;12877045;22;20261;-79
2021/09/09 11:47:48;;;;;;;10.20;9.07;;;;;29.40;100571.00;;;;12899383;22;20228;-79
2021/09/09 11:53:09;;;;;;;14.40;10.23;;;;;29.30;100569.00;;;;12848532;23;20173;-79
2021/09/09 11:58:36;;;;;;;12.13;9.82;;;;;29.00;100571.00;;;;12874541;22;20185;-79
2021/09/09 12:03:39;;;;;;;14.45;10.95;;;;;29.40;100572.00;;;;12849602;22;20181;-79
2021/09/09 12:08:44;;;;;;;12.93;8.98;;;;;29.90;100564.00;;;;12873348;22;20198;-79
2021/09/09 12:13:46;;;;;;;11.50;8.52;;;;;29.70;100569.00;;;;12898406;22;20196;-79
2021/09/09 12:19:11;;;;;;;10.73;9.18;;;;;29.60;100562.00;;;;12872761;22;20204;-79
2021/09/09 12:24:12;;;;;;;9.65;8.65;;;;;29.80;100561.00;;;;12872408;22;20608;-79
2021/09/09 12:29:18;;;;;;;15.23;9.30;;;;;30.10;100567.00;;;;12898672;22;20204;-79
2021/09/09 12:34:20;;;;;;;10.18;8.95;;;;;30.20;100567.00;;;;12847519;22;20625;-79
2021/09/09 12:39:21;;;;;;;10.60;9.50;;;;;30.00;100555.00;;;;12894397;22;20231;-78
2021/09/09 12:44:23;;;;;;;11.07;8.52;;;;;30.90;100547.00;;;;12871068;23;20177;-78
2021/09/09 12:49:26;;;;;;;9.55;7.43;;;;;32.00;100553.00;;;;12907387;22;20756;-78
2021/09/09 12:54:27;;;;;;;10.10;7.10;;;;;32.30;100539.00;;;;12888858;22;20567;-79
2021/09/09 12:59:30;;;;;;;10.20;8.43;;;;;31.30;100526.00;;;;12890261;22;20173;-79
2021/09/09 13:04:32;;;;;;;9.70;7.57;;;;;31.60;100518.00;;;;12889109;22;20174;-79
2021/09/09 13:09:33;;;;;;;8.52;6.90;;;;;31.40;100517.00;;;;12865599;22;20211;-79
2021/09/09 13:14:34;;;;;;;7.75;6.53;;;;;30.70;100524.00;;;;12885493;22;20200;-79
2021/09/09 13:19:36;;;;;;;9.68;6.35;;;;;31.30;100514.00;;;;12862964;22;20224;-79
2021/09/09 13:24:37;;;;;;;8.20;7.25;;;;;31.40;100513.00;;;;12864875;22;20173;-79
2021/09/09 13:29:38;;;;;;;8.25;6.13;;;;;31.40;100521.00;;;;12864461;22;20189;-79
2021/09/09 13:34:39;;;;;;;7.55;5.55;;;;;30.50;100519.00;;;;12864691;22;20878;-79
2021/09/09 13:39:59;;;;;;;8.98;6.40;;;;;30.30;100514.00;;;;12915178;22;20494;-79
2021/09/09 13:45:03;;;;;;;9.65;6.65;;;;;30.70;100526.00;;;;12840434;22;20313;-79
2021/09/09 13:50:05;;;;;;;8.00;7.22;;;;;30.20;100529.00;;;;12862230;22;20205;-78
2021/09/09 13:55:09;;;;;;;6.60;5.57;;;;;30.10;100518.00;;;;12838684;22;20268;-79
2021/09/09 14:00:11;;;;;;;10.82;6.35;;;;;31.00;100513.00;;;;12888281;22;20989;-79
2021/09/09 14:05:12;;;;;;;9.68;6.30;;;;;32.10;100511.00;;;;12934231;22;20161;-79
2021/09/09 14:10:16;;;;;;;9.32;6.03;;;;;32.30;100522.00;;;;12932503;22;20201;-79
2021/09/09 14:15:19;;;;;;;8.63;5.70;;;;;31.60;100518.00;;;;12936010;22;20165;-78
2021/09/09 14:20:20;;;;;;;7.78;5.40;;;;;31.30;100514.00;;;;12910766;22;20188;-78
2021/09/09 14:25:21;;;;;;;8.50;5.63;;;;;30.80;100517.00;;;;12865104;22;20177;-78
2021/09/09 14:30:23;;;;;;;8.50;5.68;;;;;30.60;100511.00;;;;12930112;22;20196;-78
2021/09/09 14:35:24;;;;;;;9.85;6.65;;;;;29.80;100509.00;;;;12892542;22;20605;-80
2021/09/09 14:40:25;;;;;;;11.40;7.07;;;;;29.20;100514.00;;;;12890179;22;20188;-80
2021/09/09 14:45:26;;;;;;;13.90;7.32;;;;;28.70;100520.00;;;;12862269;22;20170;-81
2021/09/09 14:50:27;;;;;;;8.57;7.38;;;;;28.40;100520.00;;;;12838252;22;20224;-80
2021/09/09 14:55:30;;;;;;;12.27;7.60;;;;;28.60;100511.00;;;;12866594;22;20177;-80
2021/09/09 15:00:31;;;;;;;16.58;8.40;;;;;28.30;100515.00;;;;12915348;22;20631;-81
2021/09/09 15:05:33;;;;;;;14.77;9.77;;;;;27.90;100521.00;;;;12887764;22;20288;-81
2021/09/09 15:10:35;;;;;;;11.60;9.23;;;;;27.60;100523.00;;;;12934741;22;20284;-80
2021/09/09 15:15:37;;;;;;;15.80;9.38;;;;;27.60;100528.00;;;;12889242;22;20632;-80
2021/09/09 15:20:38;;;;;;;10.23;8.98;;;;;27.60;100526.00;;;;12864344;22;20536;-81
2021/09/09 15:25:39;;;;;;;10.88;8.40;;;;;27.50;100529.00;;;;12889318;22;20609;-81
2021/09/09 15:30:41;;;;;;;11.13;9.27;;;;;27.30;100523.00;;;;12862061;22;20295;-81
2021/09/09 15:35:45;;;;;;;19.65;10.43;;;;;27.30;100528.00;;;;12863578;22;20174;-81
2021/09/09 15:40:47;;;;;;;12.13;9.35;;;;;27.20;100531.00;;;;12866139;22;20177;-81
2021/09/09 15:45:48;;;;;;;9.80;8.88;;;;;27.10;100523.00;;;;12866867;22;20193;-80
2021/09/09 15:50:49;;;;;;;12.80;9.40;;;;;26.80;100519.00;;;;12892415;22;20208;-81
2021/09/09 15:55:51;;;;;;;11.98;8.68;;;;;26.50;100516.00;;;;12889377;22;20608;-81
2021/09/09 16:00:52;;;;;;;9.60;8.70;;;;;26.30;100515.00;;;;12866995;22;20209;-81
2021/09/09 16:05:53;;;;;;;11.35;8.82;;;;;26.30;100508.00;;;;12841871;22;20169;-81
2021/09/09 16:10:55;;;;;;;13.32;8.38;;;;;26.30;100514.00;;;;12893856;22;20247;-80
2021/09/09 16:15:57;;;;;;;10.52;8.10;;;;;26.10;100512.00;;;;12892410;22;20245;-81
2021/09/09 16:20:58;;;;;;;11.20;9.10;;;;;25.90;100510.00;;;;12941143;22;20169;-81
2021/09/09 16:25:59;;;;;;;10.98;8.65;;;;;25.60;100514.00;;;;12890795;22;20170;-80
2021/09/09 16:31:03;;;;;;;11.98;8.40;;;;;25.40;100510.00;;;;12865819;22;20197;-80
2021/09/09 16:36:04;;;;;;;11.77;8.30;;;;;25.40;100507.00;;;;12891415;22;20181;-81
2021/09/09 16:41:06;;;;;;;8.85;7.95;;;;;25.30;100518.00;;;;12886624;22;20173;-80
2021/09/09 16:46:07;;;;;;;10.10;8.23;;;;;25.20;100521.00;;;;12863251;22;20801;-80
2021/09/09 16:51:09;;;;;;;10.75;8.25;;;;;24.90;100519.00;;;;12866425;22;20208;-80
2021/09/09 16:56:14;;;;;;;11.02;8.65;;;;;24.70;100531.00;;;;12862839;22;20177;-80
2021/09/09 17:01:16;;;;;;;9.40;8.38;;;;;24.40;100539.00;;;;12890360;22;20178;-80
2021/09/09 17:06:19;;;;;;;10.85;8.75;;;;;24.20;100536.00;;;;12866019;22;20177;-80
2021/09/09 17:11:23;;;;;;;12.18;7.95;;;;;24.10;100538.00;;;;12894644;22;20288;-79
2021/09/09 17:16:24;;;;;;;10.25;8.43;;;;;23.90;100544.00;;;;12919777;22;20190;-80
2021/09/09 17:21:27;;;;;;;9.57;8.52;;;;;23.80;100544.00;;;;12870030;22;20181;-79
2021/09/09 17:26:28;;;;;;;11.25;8.52;;;;;23.80;100554.00;;;;12869753;22;20613;-79
2021/09/09 17:31:29;;;;;;;15.77;9.98;;;;;23.70;100547.00;;;;12892437;22;20196;-80
2021/09/09 17:36:31;;;;;;;10.63;9.05;;;;;23.40;100547.00;;;;12914069;22;20188;-80
2021/09/09 17:41:35;;;;;;;11.38;10.07;;;;;23.20;100560.00;;;;12844040;22;20229;-80
2021/09/09 17:46:36;;;;;;;14.48;6.95;;;;;23.00;100589.00;;;;12867554;23;20252;-80
2021/09/09 17:51:38;;;;;;;18.10;4.25;;;;;22.80;100590.00;;;;12892048;22;20196;-80
2021/09/09 17:56:39;;;;;;;10.93;4.18;;;;;22.50;100582.00;;;;12870351;22;20172;-79
2021/09/09 18:01:40;;;;;;;4.43;2.05;;;;;22.30;100576.00;;;;12872197;22;20189;-81
2021/09/09 18:06:42;;;;;;;6.70;1.67;;;;;22.20;100567.00;;;;12897857;22;20268;-81
2021/09/09 18:11:44;;;;;;;2.83;1.30;;;;;22.00;100566.00;;;;12898872;22;20199;-81
2021/09/09 18:16:45;;;;;;;6.68;2.10;;;;;21.70;100599.00;;;;12873350;22;20189;-80
2021/09/09 18:21:46;;;;;;;5.95;2.45;;;;;21.00;100592.00;;;;12873699;22;20181;-80
2021/09/09 18:26:47;;;;;;;6.40;3.22;;;;;20.60;100588.00;;;;12922547;22;20183;-82
2021/09/09 18:31:48;;;;;;;6.40;3.05;;;;;20.30;100576.00;;;;12875443;22;20198;-82
2021/09/09 18:36:50;;;;;;;4.35;2.90;;;;;20.10;100556.00;;;;12874568;22;20173;-82
2021/09/09 18:41:51;;;;;;;3.80;2.60;;;;;20.00;100552.00;;;;12875791;22;20177;-81
2021/09/09 18:46:52;;;;;;;4.18;2.53;;;;;19.80;100543.00;;;;12899984;22;20705;-81
2021/09/09 18:51:56;;;;;;;9.25;3.17;;;;;19.70;100540.00;;;;12876148;22;20200;-81
2021/09/09 18:56:57;;;;;;;3.88;3.00;;;;;19.60;100550.00;;;;12899588;22;20180;-81
2021/09/09 19:01:58;;;;;;;6.70;3.50;;;;;19.50;100562.00;;;;12898246;22;20169;-81
2021/09/09 19:07:01;;;;;;;4.80;3.83;;;;;19.40;100559.00;;;;12874477;22;20643;-81
2021/09/09 19:12:04;;;;;;;4.05;3.38;;;;;19.40;100563.00;;;;12848868;22;20170;-81
2021/09/09 19:17:05;;;;;;;5.05;3.55;;;;;19.30;100570.00;;;;12872723;22;20228;-81
2021/09/09 19:22:12;;;;;;;5.68;3.72;;;;;19.20;100583.00;;;;12896319;22;20514;-81
2021/09/09 19:27:14;;;;;;;5.65;4.47;;;;;19.10;100583.00;;;;12870149;22;20193;-80
2021/09/09 19:32:15;;;;;;;5.18;4.20;;;;;19.10;100582.00;;;;12846070;22;20204;-80
2021/09/09 19:37:18;;;;;;;7.68;4.57;;;;;19.00;100589.00;;;;12845353;22;20228;-81
2021/09/09 19:42:19;;;;;;;4.45;3.78;;;;;18.90;100591.00;;;;12846808;22;20239;-81
2021/09/09 19:47:21;;;;;;;4.38;3.72;;;;;18.90;100590.00;;;;12870925;22;20244;-81
2021/09/09 19:52:22;;;;;;;7.80;4.80;;;;;18.90;100593.00;;;;12897339;22;20181;-82
2021/09/09 19:57:23;;;;;;;6.28;5.10;;;;;18.90;100590.00;;;;12870817;22;20200;-82
2021/09/09 20:02:25;;;;;;;5.72;5.13;;;;;18.80;100593.00;;;;12845452;22;20450;-82
2021/09/09 20:07:27;;;;;;;9.55;4.65;;;;;18.80;100591.00;;;;12846522;22;20185;-82
2021/09/09 20:12:28;;;;;;;8.02;6.45;;;;;18.80;100592.00;;;;12870697;22;20181;-82
2021/09/09 20:17:29;;;;;;;9.63;7.30;;;;;18.80;100598.00;;;;12895669;22;20256;-81
2021/09/09 20:22:31;;;;;;;14.48;10.15;;;;;18.80;100587.00;;;;12872992;22;20173;-82
2021/09/09 20:27:33;;;;;;;9.45;7.00;;;;;18.80;100591.00;;;;12871399;22;20277;-82
2021/09/09 20:32:34;;;;;;;16.35;10.57;;;;;18.70;100591.00;;;;12897325;22;20173;-82
2021/09/09 20:37:36;;;;;;;14.27;10.95;;;;;18.90;100599.00;;;;12872682;22;20181;-82
2021/09/09 20:42:37;;;;;;;14.60;11.23;;;;;18.90;100594.00;;;;12898202;22;20169;-82
2021/09/09 20:47:38;;;;;;;13.02;10.73;;;;;18.90;100601.00;;;;12872920;22;20201;-82
2021/09/09 20:52:40;;;;;;;11.55;9.70;;;;;18.80;100613.00;;;;12872483;22;20193;-82
2021/09/09 20:57:41;;;;;;;10.93;9.73;;;;;18.60;100607.00;;;;12873022;22;20173;-82
2021/09/09 21:02:42;;;;;;;14.15;10.70;;;;;18.50;100608.00;;;;12875022;22;20922;-82
2021/09/09 21:07:44;;;;;;;15.90;11.63;;;;;18.50;100609.00;;;;12872635;22;20643;-82
2021/09/09 21:12:45;;;;;;;17.08;11.90;;;;;18.50;100613.00;;;;12873150;22;20204;-82
2021/09/09 21:17:46;;;;;;;16.67;13.60;;;;;18.50;100606.00;;;;12848810;22;20255;-82
2021/09/09 21:22:47;;;;;;;20.83;15.68;;;;;18.50;100610.00;;;;12873259;22;20398;-82
2021/09/09 21:27:49;;;;;;;22.58;16.48;;;;;18.50;100603.00;;;;12895840;22;20193;-81
2021/09/09 21:32:50;;;;;;;17.33;15.43;;;;;18.60;100610.00;;;;12871674;23;20306;-82
2021/09/09 21:37:51;;;;;;;18.60;16.55;;;;;18.60;100613.00;;;;12847121;22;20180;-82
2021/09/09 21:42:52;;;;;;;17.10;14.57;;;;;18.60;100610.00;;;;12872416;22;20177;-82
2021/09/09 21:47:53;;;;;;;17.67;13.85;;;;;18.50;100621.00;;;;12896240;22;20192;-82
2021/09/09 21:52:55;;;;;;;18.17;14.52;;;;;18.50;100616.00;;;;12847275;22;20173;-82
2021/09/09 21:57:56;;;;;;;23.05;15.57;;;;;18.60;100611.00;;;;12871782;22;20192;-81
2021/09/09 22:03:01;;;;;;;21.23;15.82;;;;;18.70;100603.00;;;;12871208;22;20216;-82
2021/09/09 22:08:03;;;;;;;22.77;17.02;;;;;18.80;100613.00;;;;12871626;22;20649;-83
2021/09/09 22:13:15;;;;;;;20.77;15.15;;;;;18.90;100615.00;;;;12870995;22;20696;-82
2021/09/09 22:18:17;;;;;;;20.20;14.80;;;;;18.90;100614.00;;;;12871413;22;20240;-82
2021/09/09 22:23:18;;;;;;;19.98;15.25;;;;;18.90;100613.00;;;;12872068;22;20294;-82
2021/09/09 22:28:19;;;;;;;21.98;14.60;;;;;18.90;100604.00;;;;12847218;22;20249;-82
2021/09/09 22:33:21;;;;;;;16.75;13.90;;;;;18.80;100610.00;;;;12871664;22;20169;-82
2021/09/09 22:38:22;;;;;;;15.32;13.70;;;;;18.80;100611.00;;;;12871145;22;20169;-81
2021/09/09 22:43:24;;;;;;;17.25;13.90;;;;;18.80;100605.00;;;;12874822;22;20189;-82
2021/09/09 22:48:25;;;;;;;15.85;13.55;;;;;18.80;100610.00;;;;12851684;22;20197;-81
2021/09/09 22:53:28;;;;;;;18.48;13.80;;;;;18.80;100607.00;;;;12873429;22;20170;-82
2021/09/09 22:58:29;;;;;;;22.00;13.77;;;;;18.80;100616.00;;;;12875702;22;20177;-81
2021/09/09 23:03:31;;;;;;;20.67;12.82;;;;;18.70;100626.00;;;;12875853;22;20174;-82
2021/09/09 23:08:33;;;;;;;20.00;14.00;;;;;18.70;100626.00;;;;12920538;22;20197;-82
2021/09/09 23:13:34;;;;;;;18.45;13.07;;;;;18.70;100632.00;;;;12850594;22;20169;-81
2021/09/09 23:18:37;;;;;;;16.63;12.65;;;;;18.70;100635.00;;;;12873227;22;20689;-81
2021/09/09 23:23:38;;;;;;;18.45;13.43;;;;;18.70;100635.00;;;;12874810;22;20256;-82
2021/09/09 23:28:39;;;;;;;19.30;13.98;;;;;18.70;100630.00;;;;12899637;22;20197;-82
2021/09/09 23:33:58;;;;;;;21.33;14.30;;;;;18.70;100641.00;;;;12874642;22;20169;-82
2021/09/09 23:38:59;;;;;;;16.67;12.10;;;;;18.60;100633.00;;;;12875771;22;20200;-82
2021/09/09 23:44:02;;;;;;;20.08;13.20;;;;;18.70;100628.00;;;;12876682;22;20184;-82
2021/09/09 23:49:03;;;;;;;17.45;13.10;;;;;18.70;100632.00;;;;12875305;22;20184;-82
2021/09/09 23:54:04;;;;;;;16.13;12.43;;;;;18.70;100628.00;;;;12873504;22;20537;-82
2021/09/09 23:59:05;;;;;;;15.30;11.68;;;;;18.70;100633.00;;;;12848327;22;20181;-82
